createdAt,value
2018-11-03T00:00:51.034Z,59.40
2018-11-03T00:03:19.112Z,59.04
2018-11-03T00:05:47.181Z,59.42
2018-11-03T00:08:15.258Z,58.98
2018-11-03T00:10:43.333Z,59.15
2018-11-03T00:13:11.450Z,59.38
2018-11-03T00:15:39.585Z,59.13
2018-11-03T00:18:08.473Z,59.41
2018-11-03T00:20:36.668Z,59.26
2018-11-03T00:23:04.849Z,59.65
2018-11-03T00:25:32.968Z,59.53
2018-11-03T00:28:01.167Z,59.76
2018-11-03T00:30:29.349Z,59.77
2018-11-03T00:32:57.485Z,59.83
2018-11-03T00:35:25.590Z,59.84
2018-11-03T00:37:53.668Z,60.07
2018-11-03T00:40:21.787Z,59.95
2018-11-03T00:42:50.029Z,60.66
2018-11-03T00:45:18.081Z,60.88
2018-11-03T00:47:46.178Z,60.56
2018-11-03T00:50:15.588Z,60.41
2018-11-03T00:52:43.798Z,60.63
2018-11-03T00:55:12.723Z,60.75
2018-11-03T00:57:41.404Z,61.10
2018-11-03T01:00:17.362Z,61.12
2018-11-03T01:02:46.753Z,61.08
2018-11-03T01:05:15.159Z,60.91
2018-11-03T01:07:43.752Z,60.81
2018-11-03T01:10:12.321Z,61.21
2018-11-03T01:12:41.120Z,60.66
2018-11-03T01:15:11.668Z,60.74
2018-11-03T01:17:39.793Z,60.94
2018-11-03T01:20:09.770Z,61.24
2018-11-03T01:22:37.941Z,61.12
2018-11-03T01:25:06.481Z,61.26
2018-11-03T01:27:34.561Z,61.31
2018-11-03T01:30:02.648Z,61.33
2018-11-03T01:32:30.867Z,61.26
2018-11-03T01:34:58.913Z,61.14
2018-11-03T01:37:27.082Z,61.20
2018-11-03T01:39:55.343Z,61.17
2018-11-03T01:42:23.424Z,61.16
2018-11-03T01:44:51.509Z,61.02
2018-11-03T01:47:19.593Z,61.31
2018-11-03T01:49:47.686Z,61.52
2018-11-03T01:52:15.792Z,61.37
2018-11-03T01:54:43.865Z,61.31
2018-11-03T01:57:11.937Z,61.41
2018-11-03T01:59:40.206Z,61.71
2018-11-03T02:02:08.278Z,61.67
2018-11-03T02:04:36.383Z,61.46
2018-11-03T02:07:04.759Z,61.65
2018-11-03T02:09:32.819Z,61.23
2018-11-03T02:12:00.930Z,61.47
2018-11-03T02:14:29.034Z,61.79
2018-11-03T02:16:57.089Z,61.56
2018-11-03T02:19:27.683Z,61.46
2018-11-03T02:21:55.827Z,61.72
2018-11-03T02:24:23.904Z,61.67
2018-11-03T02:26:52.136Z,61.53
2018-11-03T02:29:20.198Z,61.71
2018-11-03T02:31:48.341Z,61.61
2018-11-03T02:34:16.448Z,61.48
2018-11-03T02:36:44.557Z,61.46
2018-11-03T02:39:12.692Z,61.32
2018-11-03T02:41:40.801Z,61.80
2018-11-03T02:44:08.878Z,61.32
2018-11-03T02:46:36.961Z,61.27
2018-11-03T02:49:06.097Z,61.36
2018-11-03T02:51:34.198Z,61.42
2018-11-03T02:54:02.264Z,61.50
2018-11-03T02:56:30.361Z,61.59
2018-11-03T02:58:58.432Z,61.11
2018-11-03T03:01:26.521Z,61.42
2018-11-03T03:03:54.613Z,61.10
2018-11-03T03:06:22.702Z,61.70
2018-11-03T03:08:50.804Z,61.19
2018-11-03T03:11:18.901Z,60.95
2018-11-03T03:13:47.287Z,61.16
2018-11-03T03:16:15.444Z,61.23
2018-11-03T03:18:43.698Z,61.15
2018-11-03T03:21:11.794Z,61.30
2018-11-03T03:23:39.920Z,61.16
2018-11-03T03:26:08.758Z,61.09
2018-11-03T03:28:36.885Z,61.13
2018-11-03T03:31:05.489Z,61.26
2018-11-03T03:33:33.620Z,61.14
2018-11-03T03:36:01.713Z,60.91
2018-11-03T03:38:29.785Z,61.02
2018-11-03T03:40:57.954Z,60.92
2018-11-03T03:43:26.029Z,61.02
2018-11-03T03:45:54.126Z,60.93
2018-11-03T03:48:22.211Z,60.86
2018-11-03T03:50:50.291Z,61.08
2018-11-03T03:53:18.504Z,60.96
2018-11-03T03:55:46.628Z,60.73
2018-11-03T03:58:14.708Z,60.96
2018-11-03T04:00:42.765Z,60.66
2018-11-03T04:03:10.855Z,60.59
2018-11-03T04:05:38.958Z,60.31
2018-11-03T04:08:07.061Z,60.89
2018-11-03T04:10:35.161Z,60.81
2018-11-03T04:13:03.237Z,60.66
2018-11-03T04:15:31.324Z,60.56
2018-11-03T04:17:59.427Z,60.86
2018-11-03T04:20:27.615Z,60.42
2018-11-03T04:22:55.697Z,60.58
2018-11-03T04:25:23.843Z,60.59
2018-11-03T04:27:51.954Z,60.47
2018-11-03T04:30:20.061Z,60.63
2018-11-03T04:32:48.142Z,60.49
2018-11-03T04:35:16.218Z,60.64
2018-11-03T04:37:44.306Z,60.52
2018-11-03T04:40:13.225Z,60.62
2018-11-03T04:42:41.860Z,60.28
2018-11-03T04:45:10.881Z,60.55
2018-11-03T04:47:38.998Z,60.72
2018-11-03T04:50:07.837Z,60.78
2018-11-03T04:52:35.929Z,60.70
2018-11-03T04:55:04.640Z,60.81
2018-11-03T04:57:32.692Z,60.76
2018-11-03T05:00:00.788Z,60.82
2018-11-03T05:02:28.892Z,61.02
2018-11-03T05:04:56.973Z,60.82
2018-11-03T05:07:25.064Z,60.60
2018-11-03T05:09:53.252Z,60.46
2018-11-03T05:12:21.306Z,60.69
2018-11-03T05:14:49.380Z,60.82
2018-11-03T05:17:17.489Z,60.53
2018-11-03T05:19:45.598Z,60.74
2018-11-03T05:22:13.678Z,60.23
2018-11-03T05:24:41.741Z,60.43
2018-11-03T05:27:09.831Z,60.63
2018-11-03T05:29:37.982Z,60.78
2018-11-03T05:32:06.094Z,60.42
2018-11-03T05:34:34.205Z,60.16
2018-11-03T05:37:02.308Z,60.60
2018-11-03T05:39:30.539Z,59.96
2018-11-03T05:41:58.601Z,59.69
2018-11-03T05:44:26.696Z,60.02
2018-11-03T05:46:54.756Z,60.04
2018-11-03T05:49:22.830Z,60.34
2018-11-03T05:51:50.908Z,60.38
2018-11-03T05:54:19.020Z,59.69
2018-11-03T05:56:47.109Z,59.96
2018-11-03T05:59:15.216Z,60.00
2018-11-03T06:01:43.337Z,59.78
2018-11-03T06:04:11.416Z,60.13
2018-11-03T06:06:39.548Z,60.11
2018-11-03T06:09:08.685Z,60.13
2018-11-03T06:11:36.768Z,60.02
2018-11-03T06:14:04.882Z,60.25
2018-11-03T06:16:32.975Z,60.12
2018-11-03T06:19:01.048Z,59.92
2018-11-03T06:21:29.156Z,59.93
2018-11-03T06:23:57.274Z,59.74
2018-11-03T06:26:25.343Z,60.04
2018-11-03T06:28:53.422Z,59.88
2018-11-03T06:31:21.497Z,59.61
2018-11-03T06:33:49.574Z,59.66
2018-11-03T06:36:17.660Z,59.64
2018-11-03T06:38:45.763Z,59.55
2018-11-03T06:41:13.894Z,60.04
2018-11-03T06:43:41.925Z,59.95
2018-11-03T06:46:10.026Z,59.78
2018-11-03T06:48:38.106Z,59.78
2018-11-03T06:51:06.217Z,59.74
2018-11-03T06:53:34.310Z,59.70
2018-11-03T06:56:02.352Z,60.02
2018-11-03T06:58:30.440Z,59.77
2018-11-03T07:00:58.512Z,60.04
2018-11-03T07:03:26.608Z,60.03
2018-11-03T07:05:54.702Z,60.02
2018-11-03T07:08:22.804Z,59.68
2018-11-03T07:10:50.865Z,60.23
2018-11-03T07:13:19.069Z,60.43
2018-11-03T07:15:47.135Z,60.44
2018-11-03T07:18:15.205Z,60.31
2018-11-03T07:20:43.320Z,60.41
2018-11-03T07:23:11.439Z,60.68
2018-11-03T07:25:39.517Z,60.96
2018-11-03T07:28:07.671Z,60.82
2018-11-03T07:30:35.736Z,60.39
2018-11-03T07:33:03.849Z,60.17
2018-11-03T07:35:31.970Z,59.97
2018-11-03T07:38:00.090Z,60.04
2018-11-03T07:40:28.174Z,59.83
2018-11-03T07:42:56.266Z,59.86
2018-11-03T07:45:24.373Z,59.79
2018-11-03T07:47:52.458Z,59.61
2018-11-03T07:50:20.719Z,59.91
2018-11-03T07:52:48.784Z,59.77
2018-11-03T07:55:16.865Z,59.38
2018-11-03T07:57:45.080Z,59.57
2018-11-03T08:00:13.956Z,59.62
2018-11-03T08:02:42.036Z,60.05
2018-11-03T08:05:11.683Z,59.84
2018-11-03T08:07:39.846Z,60.39
2018-11-03T08:10:09.442Z,60.02
2018-11-03T08:12:37.539Z,59.76
2018-11-03T08:15:06.369Z,60.26
2018-11-03T08:17:34.460Z,59.99
2018-11-03T08:20:02.555Z,59.58
2018-11-03T08:22:30.674Z,59.59
2018-11-03T08:24:58.785Z,59.07
2018-11-03T08:27:26.872Z,59.38
2018-11-03T08:29:54.962Z,59.47
2018-11-03T08:32:23.062Z,58.96
2018-11-03T08:34:51.140Z,59.39
2018-11-03T08:37:19.252Z,59.45
2018-11-03T08:39:47.435Z,59.11
2018-11-03T08:42:15.573Z,58.87
2018-11-03T08:44:43.653Z,58.76
2018-11-03T08:47:11.732Z,58.98
2018-11-03T08:49:39.813Z,58.98
2018-11-03T08:52:07.904Z,59.35
2018-11-03T08:54:36.178Z,59.35
2018-11-03T08:57:04.245Z,59.53
2018-11-03T08:59:32.442Z,58.73
2018-11-03T09:02:00.460Z,59.03
2018-11-03T09:04:28.582Z,58.99
2018-11-03T09:06:56.749Z,58.91
2018-11-03T09:09:24.794Z,58.13
2018-11-03T09:11:52.945Z,58.32
2018-11-03T09:14:21.112Z,58.21
2018-11-03T09:16:49.140Z,57.88
2018-11-03T09:19:17.261Z,57.96
2018-11-03T09:21:45.434Z,57.79
2018-11-03T09:24:13.432Z,57.58
2018-11-03T09:26:41.481Z,57.28
2018-11-03T09:29:09.586Z,57.38
2018-11-03T09:31:37.681Z,57.52
2018-11-03T09:34:06.138Z,57.28
2018-11-03T09:36:34.198Z,57.53
2018-11-03T09:39:02.419Z,57.11
2018-11-03T09:41:30.369Z,57.64
2018-11-03T09:43:58.440Z,58.11
2018-11-03T09:46:26.605Z,58.21
2018-11-03T09:48:54.669Z,57.78
2018-11-03T09:51:22.741Z,57.86
2018-11-03T09:53:50.823Z,58.15
2018-11-03T09:56:18.982Z,58.13
2018-11-03T09:58:47.103Z,57.58
2018-11-03T10:01:15.161Z,57.49
2018-11-03T10:03:43.242Z,57.24
2018-11-03T10:06:11.307Z,56.79
2018-11-03T10:08:39.385Z,56.69
2018-11-03T10:11:07.527Z,57.00
2018-11-03T10:13:35.630Z,57.21
2018-11-03T10:16:04.001Z,57.29
2018-11-03T10:18:31.979Z,57.54
2018-11-03T10:21:00.037Z,57.77
2018-11-03T10:23:28.124Z,57.31
2018-11-03T10:25:57.538Z,57.52
2018-11-03T10:28:25.670Z,57.09
2018-11-03T10:30:53.784Z,57.33
2018-11-03T10:33:21.926Z,56.98
2018-11-03T10:35:50.071Z,56.96
2018-11-03T10:38:18.182Z,56.95
2018-11-03T10:40:46.325Z,57.21
2018-11-03T10:43:14.409Z,57.06
2018-11-03T10:45:42.662Z,56.73
2018-11-03T10:48:10.760Z,56.41
2018-11-03T10:50:38.877Z,56.45
2018-11-03T10:53:07.177Z,56.70
2018-11-03T10:55:35.318Z,57.43
2018-11-03T10:58:03.405Z,57.49
2018-11-03T11:01:35.364Z,58.14
2018-11-03T11:04:08.799Z,57.80
2018-11-03T11:06:42.175Z,57.48
2018-11-03T11:09:35.649Z,57.13
2018-11-03T11:12:10.587Z,56.29
2018-11-03T11:14:38.709Z,56.38
2018-11-03T11:17:06.895Z,55.40
2018-11-03T11:19:35.020Z,55.37
2018-11-03T11:22:03.294Z,55.34
2018-11-03T11:24:31.526Z,54.66
2018-11-03T11:26:59.763Z,54.72
2018-11-03T11:29:27.945Z,54.15
2018-11-03T11:31:56.017Z,54.53
2018-11-03T11:34:24.119Z,54.06
2018-11-03T11:36:52.209Z,54.83
2018-11-03T11:39:20.310Z,52.67
2018-11-03T11:41:48.388Z,52.19
2018-11-03T11:44:16.518Z,50.49
2018-11-03T11:46:44.741Z,51.02
2018-11-03T11:49:12.832Z,51.98
2018-11-03T11:51:40.969Z,52.53
2018-11-03T11:54:09.090Z,53.27
2018-11-03T11:56:37.163Z,53.76
2018-11-03T11:59:05.332Z,54.89
2018-11-03T12:01:33.440Z,54.40
2018-11-03T12:04:01.525Z,54.76
2018-11-03T12:06:29.728Z,54.34
2018-11-03T12:08:57.765Z,54.22
2018-11-03T12:11:25.913Z,53.63
2018-11-03T12:13:54.004Z,53.73
2018-11-03T12:16:22.223Z,53.15
2018-11-03T12:18:50.240Z,52.43
2018-11-03T12:21:18.393Z,52.42
2018-11-03T12:23:46.487Z,53.19
2018-11-03T12:26:14.644Z,52.38
2018-11-03T12:28:42.722Z,51.84
2018-11-03T12:31:10.796Z,51.26
2018-11-03T12:33:38.915Z,52.10
2018-11-03T12:36:07.019Z,52.35
2018-11-03T12:38:35.135Z,52.19
2018-11-03T12:41:03.331Z,52.69
2018-11-03T12:43:31.323Z,52.89
2018-11-03T12:45:59.412Z,53.16
2018-11-03T12:48:27.590Z,53.60
2018-11-03T12:50:55.593Z,53.62
2018-11-03T12:53:23.716Z,54.28
2018-11-03T12:55:51.798Z,54.79
2018-11-03T12:58:19.914Z,54.70
2018-11-03T13:00:48.017Z,54.65
2018-11-03T13:03:16.146Z,54.12
2018-11-03T13:05:44.193Z,53.81
2018-11-03T13:08:12.265Z,53.64
2018-11-03T13:10:40.417Z,53.50
2018-11-03T13:13:08.517Z,53.94
2018-11-03T13:15:36.641Z,53.72
2018-11-03T13:18:05.233Z,53.73
2018-11-03T13:20:33.365Z,53.43
2018-11-03T13:23:01.452Z,54.01
2018-11-03T13:25:29.560Z,54.18
2018-11-03T13:27:57.661Z,54.09
2018-11-03T13:30:25.753Z,54.99
2018-11-03T13:32:54.125Z,54.30
2018-11-03T13:35:24.925Z,54.22
2018-11-03T13:37:53.288Z,54.13
2018-11-03T13:40:22.258Z,54.00
2018-11-03T13:42:50.326Z,54.06
2018-11-03T13:45:18.738Z,54.11
2018-11-03T13:47:47.253Z,54.81
2018-11-03T13:50:16.672Z,54.16
2018-11-03T13:52:45.869Z,54.09
2018-11-03T13:55:13.986Z,54.20
2018-11-03T13:57:43.164Z,54.68
2018-11-03T14:00:13.567Z,54.22
2018-11-03T14:02:42.548Z,54.45
2018-11-03T14:05:11.368Z,54.91
2018-11-03T14:07:39.516Z,54.14
2018-11-03T14:10:10.063Z,54.49
2018-11-03T14:12:38.162Z,54.47
2018-11-03T14:15:07.622Z,54.70
2018-11-03T14:17:35.783Z,54.55
2018-11-03T14:20:04.399Z,54.52
2018-11-03T14:22:32.525Z,54.23
2018-11-03T14:25:00.809Z,54.84
2018-11-03T14:27:28.916Z,54.53
2018-11-03T14:29:57.045Z,54.99
2018-11-03T14:32:25.121Z,55.05
2018-11-03T14:34:53.221Z,54.71
2018-11-03T14:37:21.424Z,54.79
2018-11-03T14:39:49.486Z,55.11
2018-11-03T14:42:17.569Z,55.40
2018-11-03T14:44:45.752Z,55.42
2018-11-03T14:47:13.751Z,55.50
2018-11-03T14:49:41.913Z,54.85
2018-11-03T14:52:10.000Z,55.60
2018-11-03T14:54:38.136Z,56.19
2018-11-03T14:57:06.225Z,55.54
2018-11-03T14:59:34.285Z,55.90
2018-11-03T15:02:02.380Z,56.81
2018-11-03T15:04:30.502Z,56.16
2018-11-03T15:06:58.647Z,56.52
2018-11-03T15:09:26.745Z,56.23
2018-11-03T15:11:54.859Z,56.73
2018-11-03T15:14:23.008Z,56.50
2018-11-03T15:16:51.003Z,56.27
2018-11-03T15:19:19.299Z,56.80
2018-11-03T15:21:47.310Z,56.62
2018-11-03T15:24:15.404Z,57.08
2018-11-03T15:26:43.497Z,56.97
2018-11-03T15:29:11.642Z,57.01
2018-11-03T15:31:39.748Z,57.27
2018-11-03T15:34:07.872Z,57.30
2018-11-03T15:36:35.962Z,57.18
2018-11-03T15:39:04.700Z,56.94
2018-11-03T15:41:33.156Z,57.31
2018-11-03T15:44:01.074Z,57.53
2018-11-03T15:46:29.175Z,57.79
2018-11-03T15:48:57.297Z,57.55
2018-11-03T15:51:25.378Z,57.72
2018-11-03T15:53:53.489Z,57.68
2018-11-03T15:56:21.578Z,58.17
2018-11-03T15:58:49.628Z,58.26
2018-11-03T16:01:17.707Z,57.69
2018-11-03T16:03:45.785Z,57.97
2018-11-03T16:06:13.944Z,57.31
2018-11-03T16:08:42.021Z,57.59
2018-11-03T16:11:10.189Z,57.86
2018-11-03T16:13:38.289Z,57.61
2018-11-03T16:16:06.427Z,57.61
2018-11-03T16:18:34.496Z,57.45
2018-11-03T16:21:02.817Z,57.49
2018-11-03T16:23:30.949Z,57.44
2018-11-03T16:25:59.242Z,57.84
2018-11-03T16:28:27.271Z,57.46
2018-11-03T16:30:55.392Z,57.66
2018-11-03T16:33:23.525Z,57.72
2018-11-03T16:35:51.682Z,57.75
2018-11-03T16:38:19.869Z,57.35
2018-11-03T16:40:47.897Z,57.91
2018-11-03T16:43:15.986Z,57.91
2018-11-03T16:45:44.272Z,57.53
2018-11-03T16:48:12.308Z,57.57
2018-11-03T16:50:40.418Z,57.73
2018-11-03T16:53:08.587Z,57.45
2018-11-03T16:55:36.881Z,57.80
2018-11-03T16:58:05.234Z,57.65
2018-11-03T17:00:33.293Z,57.62
2018-11-03T17:03:01.452Z,57.94
2018-11-03T17:05:29.548Z,57.89
2018-11-03T17:07:57.660Z,57.78
2018-11-03T17:10:25.769Z,57.47
2018-11-03T17:12:54.060Z,57.51
2018-11-03T17:15:22.078Z,58.08
2018-11-03T17:17:50.170Z,57.62
2018-11-03T17:20:18.254Z,58.30
2018-11-03T17:22:46.329Z,58.23
2018-11-03T17:25:14.558Z,57.77
2018-11-03T17:27:42.652Z,58.05
2018-11-03T17:30:13.317Z,57.90
2018-11-03T17:32:41.535Z,58.11
2018-11-03T17:35:10.087Z,58.33
2018-11-03T17:37:39.109Z,58.42
2018-11-03T17:40:08.188Z,58.54
2018-11-03T17:42:36.480Z,58.57
2018-11-03T17:45:05.476Z,57.92
2018-11-03T17:47:33.540Z,58.03
2018-11-03T17:50:01.690Z,58.24
2018-11-03T17:52:29.844Z,58.03
2018-11-03T17:54:58.177Z,58.07
2018-11-03T17:57:26.138Z,58.32
2018-11-03T17:59:54.287Z,58.05
2018-11-03T18:02:22.333Z,58.17
2018-11-03T18:04:50.420Z,58.01
2018-11-03T18:07:18.537Z,58.13
2018-11-03T18:09:46.629Z,58.71
2018-11-03T18:12:14.729Z,58.60
2018-11-03T18:14:42.806Z,58.57
2018-11-03T18:17:10.864Z,58.21
2018-11-03T18:19:39.008Z,58.41
2018-11-03T18:22:07.005Z,58.55
2018-11-03T18:24:35.065Z,58.17
2018-11-03T18:27:03.333Z,58.21
2018-11-03T18:29:31.402Z,58.77
2018-11-03T18:31:59.479Z,58.53
2018-11-03T18:34:27.595Z,58.40
2018-11-03T18:36:55.630Z,58.54
2018-11-03T18:39:23.765Z,58.40
2018-11-03T18:41:51.865Z,59.10
2018-11-03T18:44:19.986Z,59.11
2018-11-03T18:46:48.155Z,59.23
2018-11-03T18:49:16.155Z,59.38
2018-11-03T18:51:44.266Z,59.38
2018-11-03T18:54:12.357Z,59.35
2018-11-03T18:56:40.425Z,59.55
2018-11-03T18:59:08.525Z,59.96
2018-11-03T19:01:36.709Z,59.91
2018-11-03T19:04:04.827Z,59.84
2018-11-03T19:06:32.900Z,60.03
2018-11-03T19:09:01.066Z,60.22
2018-11-03T19:11:29.098Z,60.34
2018-11-03T19:13:57.228Z,60.36
2018-11-03T19:16:25.329Z,60.45
2018-11-03T19:18:53.438Z,60.11
2018-11-03T19:21:21.564Z,60.28
2018-11-03T19:23:49.832Z,60.21
2018-11-03T19:26:17.789Z,60.08
2018-11-03T19:28:45.869Z,60.52
2018-11-03T19:31:13.998Z,60.54
2018-11-03T19:33:42.101Z,60.83
2018-11-03T19:36:10.211Z,60.36
2018-11-03T19:38:38.446Z,60.45
2018-11-03T19:41:06.573Z,60.74
2018-11-03T19:43:34.866Z,60.40
2018-11-03T19:46:03.061Z,60.45
2018-11-03T19:48:31.170Z,61.17
2018-11-03T19:50:59.302Z,60.79
2018-11-03T19:53:27.378Z,60.92
2018-11-03T19:55:55.492Z,61.16
2018-11-03T19:58:23.576Z,61.03
2018-11-03T20:00:51.648Z,61.31
2018-11-03T20:03:19.796Z,61.26
2018-11-03T20:05:47.866Z,61.04
2018-11-03T20:08:15.993Z,61.31
2018-11-03T20:10:44.055Z,61.26
2018-11-03T20:13:12.182Z,61.02
2018-11-03T20:15:40.258Z,61.23
2018-11-03T20:18:08.576Z,60.71
2018-11-03T20:20:36.573Z,60.88
2018-11-03T20:23:04.684Z,60.66
2018-11-03T20:25:32.807Z,60.50
2018-11-03T20:28:00.914Z,60.75
2018-11-03T20:30:28.985Z,61.11
2018-11-03T20:32:57.100Z,60.48
2018-11-03T20:35:25.220Z,60.53
2018-11-03T20:37:53.310Z,60.36
2018-11-03T20:40:21.414Z,60.42
2018-11-03T20:42:49.577Z,60.08
2018-11-03T20:45:17.709Z,60.31
2018-11-03T20:47:45.839Z,59.85
2018-11-03T20:50:14.688Z,59.99
2018-11-03T20:52:42.832Z,60.31
2018-11-03T20:55:11.834Z,59.63
2018-11-03T20:57:40.289Z,59.88
2018-11-03T21:00:10.149Z,59.37
2018-11-03T21:02:38.291Z,60.05
2018-11-03T21:05:07.378Z,59.68
2018-11-03T21:07:35.616Z,59.51
2018-11-03T21:10:03.804Z,59.85
2018-11-03T21:12:31.943Z,60.14
2018-11-03T21:15:00.009Z,59.76
2018-11-03T21:17:28.192Z,60.08
2018-11-03T21:19:56.307Z,60.06
2018-11-03T21:22:24.495Z,60.16
2018-11-03T21:24:52.603Z,59.57
2018-11-03T21:27:20.660Z,59.61
2018-11-03T21:29:48.810Z,59.74
2018-11-03T21:32:17.096Z,59.74
2018-11-03T21:34:45.042Z,59.70
2018-11-03T21:37:13.123Z,59.93
2018-11-03T21:39:41.226Z,60.28
2018-11-03T21:42:09.334Z,60.55
2018-11-03T21:44:37.449Z,60.04
2018-11-03T21:47:05.737Z,60.24
2018-11-03T21:49:33.736Z,60.43
2018-11-03T21:52:01.973Z,60.47
2018-11-03T21:54:30.098Z,60.06
2018-11-03T21:56:58.213Z,60.70
2018-11-03T21:59:26.384Z,60.36
2018-11-03T22:01:54.473Z,60.15
2018-11-03T22:04:22.560Z,60.19
2018-11-03T22:06:50.649Z,60.16
2018-11-03T22:09:19.018Z,60.11
2018-11-03T22:11:47.110Z,60.07
2018-11-03T22:14:15.269Z,60.74
2018-11-03T22:16:43.332Z,60.34
2018-11-03T22:19:11.458Z,60.28
2018-11-03T22:21:39.590Z,60.57
2018-11-03T22:24:07.673Z,60.48
2018-11-03T22:26:35.961Z,60.24
2018-11-03T22:29:04.106Z,60.29
2018-11-03T22:31:32.259Z,60.64
2018-11-03T22:34:00.376Z,60.56
2018-11-03T22:36:28.496Z,60.23
2018-11-03T22:38:57.299Z,60.33
2018-11-03T22:41:25.440Z,60.11
2018-11-03T22:43:53.528Z,60.42
2018-11-03T22:46:21.642Z,60.53
2018-11-03T22:48:49.843Z,60.49
2018-11-03T22:51:18.093Z,60.27
2018-11-03T22:53:46.683Z,59.97
2018-11-03T22:56:15.240Z,60.44
2018-11-03T22:58:43.413Z,60.62
2018-11-03T23:01:11.585Z,60.80
2018-11-03T23:03:39.676Z,60.42
2018-11-03T23:06:07.783Z,60.84
2018-11-03T23:08:35.873Z,61.32
2018-11-03T23:11:04.027Z,60.83
2018-11-03T23:13:32.184Z,61.29
2018-11-03T23:16:00.300Z,61.53
2018-11-03T23:18:28.403Z,60.85
2018-11-03T23:20:56.508Z,61.02
2018-11-03T23:23:24.659Z,60.83
2018-11-03T23:25:52.778Z,61.00
2018-11-03T23:28:20.848Z,60.85
2018-11-03T23:30:48.954Z,61.06
2018-11-03T23:33:17.050Z,60.81
2018-11-03T23:35:45.179Z,60.64
2018-11-03T23:38:13.307Z,61.30
2018-11-03T23:40:41.419Z,61.11
2018-11-03T23:43:10.138Z,61.15
2018-11-03T23:45:38.216Z,60.99
2018-11-03T23:48:06.422Z,60.53
2018-11-03T23:50:34.541Z,61.12
2018-11-03T23:53:02.685Z,61.11
2018-11-03T23:55:30.832Z,61.17
2018-11-03T23:57:58.914Z,60.99
